Time;durP1;ratioP1;P1;durP2;ratioP2;P2;SDS_P1;SDS_P2;PMS_P1;PMS_P2;Temp;Humidity;BMP_temperature;BMP_pressure;BME280_temperature;BME280_humidity;BME280_pressure;Samples;Min_cycle;Max_cycle;Signal;HPM_P1;HPM_P2
2022/07/31 00:02:22;;;;;;;3.30;1.73;;;20.10;83.50;;;;;;4997231;28;20044;-82
2022/07/31 00:04:48;;;;;;;2.85;1.63;;;20.10;83.50;;;;;;4998318;28;20065;-80
2022/07/31 00:07:13;;;;;;;2.13;1.55;;;20.10;83.50;;;;;;4995961;28;20057;-81
2022/07/31 00:09:42;;;;;;;2.03;1.52;;;20.00;83.60;;;;;;4996735;28;20030;-80
2022/07/31 00:12:07;;;;;;;6.65;1.67;;;20.00;83.80;;;;;;5002590;28;20350;-80
2022/07/31 00:14:33;;;;;;;4.05;1.60;;;19.90;83.90;;;;;;4998089;28;20082;-81
2022/07/31 00:17:02;;;;;;;3.45;1.70;;;19.90;84.10;;;;;;4997280;28;20034;-80
2022/07/31 00:19:27;;;;;;;4.55;2.22;;;19.90;84.20;;;;;;4994421;28;20036;-81
2022/07/31 00:21:53;;;;;;;5.40;1.80;;;19.80;84.50;;;;;;4994142;28;20410;-79
2022/07/31 00:24:19;;;;;;;3.28;1.90;;;19.80;84.50;;;;;;4997256;28;20032;-80
2022/07/31 00:26:47;;;;;;;2.53;1.90;;;19.80;84.50;;;;;;4995104;28;20040;-80
2022/07/31 00:29:16;;;;;;;1.85;1.50;;;19.80;84.40;;;;;;4994737;28;20026;-80
2022/07/31 00:31:41;;;;;;;3.28;1.83;;;19.80;84.40;;;;;;4994305;28;20038;-80
2022/07/31 00:34:07;;;;;;;3.33;1.90;;;19.70;85.10;;;;;;4992438;28;20022;-81
2022/07/31 00:36:33;;;;;;;6.38;1.92;;;19.70;84.60;;;;;;4989501;28;20120;-82
2022/07/31 00:39:02;;;;;;;2.92;1.75;;;19.60;84.70;;;;;;4994475;28;20053;-82
2022/07/31 00:41:38;;;;;;;4.20;1.65;;;19.60;84.90;;;;;;4991874;28;20041;-81
2022/07/31 00:44:07;;;;;;;2.10;1.60;;;19.60;85.00;;;;;;4992044;28;20060;-81
2022/07/31 00:46:33;;;;;;;4.00;1.63;;;19.60;85.30;;;;;;4991914;28;20033;-81
2022/07/31 00:49:03;;;;;;;2.90;1.60;;;19.60;85.50;;;;;;4987637;28;20034;-80
2022/07/31 00:51:28;;;;;;;2.13;1.80;;;19.60;85.80;;;;;;4987803;28;20294;-80
2022/07/31 00:53:55;;;;;;;2.83;1.80;;;19.50;85.80;;;;;;4987489;28;20058;-82
2022/07/31 00:56:20;;;;;;;3.95;1.73;;;19.50;86.10;;;;;;4986497;28;20486;-81
2022/07/31 00:58:49;;;;;;;2.13;1.80;;;19.50;86.10;;;;;;4990155;28;20030;-80
2022/07/31 01:01:15;;;;;;;3.15;1.60;;;19.40;86.80;;;;;;4991220;28;20037;-80
2022/07/31 01:03:40;;;;;;;2.42;1.60;;;19.40;86.10;;;;;;4990541;28;20034;-80
2022/07/31 01:06:06;;;;;;;3.15;1.75;;;19.40;86.30;;;;;;4990673;28;20215;-82
2022/07/31 01:08:32;;;;;;;2.63;1.95;;;19.40;86.60;;;;;;4993778;28;20026;-80
2022/07/31 01:11:09;;;;;;;3.72;1.73;;;19.30;86.80;;;;;;4994629;28;20113;-80
2022/07/31 01:13:47;;;;;;;2.85;1.83;;;19.30;87.00;;;;;;4986941;28;20031;-79
2022/07/31 01:16:14;;;;;;;4.03;2.00;;;19.30;87.30;;;;;;4990705;28;20053;-79
2022/07/31 01:18:41;;;;;;;1.83;1.65;;;19.20;87.10;;;;;;4992545;28;20531;-79
2022/07/31 01:21:10;;;;;;;2.83;1.70;;;19.20;87.30;;;;;;4993292;28;20040;-79
2022/07/31 01:23:41;;;;;;;3.28;1.70;;;19.20;87.50;;;;;;4993571;28;20486;-81
2022/07/31 01:26:48;;;;;;;2.70;1.50;;;19.20;87.50;;;;;;4989677;28;20029;-81
2022/07/31 01:29:34;;;;;;;2.45;1.55;;;19.20;87.90;;;;;;4992099;28;20081;-81
2022/07/31 01:32:34;;;;;;;2.60;1.70;;;19.10;87.80;;;;;;4995272;28;20038;-81
2022/07/31 01:35:24;;;;;;;2.72;1.73;;;19.10;88.00;;;;;;4995473;28;20133;-80
2022/07/31 01:38:05;;;;;;;2.75;1.77;;;19.00;88.20;;;;;;4998989;28;20033;-80
2022/07/31 01:40:36;;;;;;;3.92;1.48;;;19.00;88.60;;;;;;4998378;28;20087;-79
2022/07/31 01:43:06;;;;;;;4.53;1.92;;;19.00;88.60;;;;;;5006160;28;20026;-80
2022/07/31 01:45:34;;;;;;;5.68;2.03;;;18.90;88.90;;;;;;4998348;28;20558;-79
2022/07/31 01:48:02;;;;;;;3.22;1.60;;;18.90;89.10;;;;;;4997250;28;20464;-80
2022/07/31 01:50:37;;;;;;;4.93;1.70;;;18.90;89.40;;;;;;5009028;28;20019;-79
2022/07/31 01:53:03;;;;;;;2.65;1.83;;;18.80;89.80;;;;;;4993255;28;20090;-81
2022/07/31 01:55:31;;;;;;;3.67;2.10;;;18.80;89.90;;;;;;4999449;28;20034;-80
2022/07/31 01:57:57;;;;;;;1.80;1.42;;;18.70;90.00;;;;;;4992232;28;20073;-79
2022/07/31 02:00:23;;;;;;;4.63;2.15;;;18.70;90.10;;;;;;4996500;28;20458;-79
2022/07/31 02:02:51;;;;;;;4.28;1.77;;;18.60;90.20;;;;;;4995671;28;20590;-79
2022/07/31 02:05:20;;;;;;;2.35;1.67;;;18.70;90.30;;;;;;4990450;28;20027;-79
2022/07/31 02:07:51;;;;;;;3.95;1.60;;;18.60;90.30;;;;;;4996039;28;20035;-78
2022/07/31 02:10:19;;;;;;;3.17;1.80;;;18.60;90.30;;;;;;4994966;28;20010;-79
2022/07/31 02:12:44;;;;;;;2.50;1.75;;;18.60;90.30;;;;;;4997296;28;20034;-79
2022/07/31 02:15:12;;;;;;;4.07;1.45;;;18.60;90.40;;;;;;4993801;28;20037;-80
2022/07/31 02:17:40;;;;;;;3.88;1.63;;;18.60;90.50;;;;;;4986344;28;20026;-79
2022/07/31 02:20:10;;;;;;;2.30;1.80;;;18.50;90.50;;;;;;4997721;28;20019;-80
2022/07/31 02:22:36;;;;;;;3.20;1.60;;;18.50;90.60;;;;;;4998957;28;20034;-79
2022/07/31 02:25:06;;;;;;;1.73;1.60;;;18.50;90.70;;;;;;4992368;28;20416;-77
2022/07/31 02:27:32;;;;;;;1.92;1.52;;;18.40;90.70;;;;;;4999843;28;20037;-79
2022/07/31 02:30:01;;;;;;;2.80;1.65;;;18.40;90.80;;;;;;4993521;28;20031;-79
2022/07/31 02:32:31;;;;;;;1.98;1.40;;;18.40;90.90;;;;;;4995383;28;20052;-79
2022/07/31 02:34:59;;;;;;;2.20;1.60;;;18.40;91.00;;;;;;4995322;28;20025;-78
2022/07/31 02:37:30;;;;;;;2.88;1.73;;;18.40;91.10;;;;;;4993752;28;21412;-79
2022/07/31 02:39:56;;;;;;;4.47;1.98;;;18.30;91.30;;;;;;4994947;28;20026;-80
2022/07/31 02:42:22;;;;;;;1.92;1.50;;;18.30;91.00;;;;;;4999165;28;20117;-79
2022/07/31 02:44:49;;;;;;;2.63;1.75;;;18.30;91.10;;;;;;5002609;28;20657;-79
2022/07/31 02:47:15;;;;;;;3.22;1.60;;;18.30;91.10;;;;;;4993950;28;20030;-80
2022/07/31 02:49:44;;;;;;;2.08;1.63;;;18.20;91.10;;;;;;4991929;28;20023;-80
2022/07/31 02:52:11;;;;;;;2.17;1.73;;;18.20;91.20;;;;;;4991860;28;20026;-82
2022/07/31 02:54:39;;;;;;;3.28;1.77;;;18.20;91.20;;;;;;4995741;28;20022;-82
2022/07/31 02:57:05;;;;;;;3.30;1.65;;;18.20;91.30;;;;;;4992881;28;20049;-80
2022/07/31 02:59:36;;;;;;;2.17;1.50;;;18.10;91.30;;;;;;4993175;28;20045;-80
2022/07/31 03:02:02;;;;;;;2.97;1.40;;;18.10;91.40;;;;;;4992409;28;20454;-82
2022/07/31 03:04:33;;;;;;;2.90;1.65;;;18.10;91.50;;;;;;4997626;28;20110;-79
2022/07/31 03:07:02;;;;;;;2.47;1.50;;;18.10;91.60;;;;;;4997425;28;20022;-80
2022/07/31 03:09:29;;;;;;;4.68;1.83;;;18.10;91.70;;;;;;4993260;28;20034;-79
2022/07/31 03:12:01;;;;;;;3.00;1.80;;;18.10;91.70;;;;;;4999040;28;20036;-79
2022/07/31 03:14:29;;;;;;;2.80;1.80;;;18.00;91.80;;;;;;4997435;28;20018;-79
2022/07/31 03:16:56;;;;;;;1.90;1.65;;;18.00;91.90;;;;;;5001940;28;20053;-79
2022/07/31 03:19:23;;;;;;;5.47;1.80;;;18.00;91.90;;;;;;5005692;28;20030;-80
2022/07/31 03:21:50;;;;;;;2.58;2.03;;;18.00;92.00;;;;;;5007143;28;20031;-80
2022/07/31 03:24:16;;;;;;;2.80;1.63;;;17.90;92.10;;;;;;4999816;28;20097;-79
2022/07/31 03:26:42;;;;;;;2.28;1.65;;;17.90;92.30;;;;;;4999648;28;20073;-79
2022/07/31 03:29:08;;;;;;;2.78;2.00;;;17.80;92.40;;;;;;5000877;28;20034;-79
2022/07/31 03:31:39;;;;;;;2.80;1.38;;;17.80;92.60;;;;;;4999590;28;20431;-79
2022/07/31 03:34:07;;;;;;;3.63;1.92;;;17.80;92.70;;;;;;4996423;28;20033;-79
2022/07/31 03:36:36;;;;;;;4.65;1.85;;;17.70;92.70;;;;;;4993224;28;20030;-80
2022/07/31 03:39:02;;;;;;;3.22;2.22;;;17.70;92.70;;;;;;4991110;28;20118;-79
2022/07/31 03:41:31;;;;;;;2.42;1.67;;;17.70;92.80;;;;;;4995434;28;20091;-80
2022/07/31 03:43:57;;;;;;;3.40;1.60;;;17.70;93.00;;;;;;4991082;28;20026;-81
2022/07/31 03:46:23;;;;;;;3.70;2.10;;;17.70;93.10;;;;;;4993443;28;20530;-80
2022/07/31 03:48:50;;;;;;;4.18;2.00;;;17.70;93.10;;;;;;4994490;28;20030;-79
2022/07/31 03:51:17;;;;;;;2.95;2.35;;;17.70;93.30;;;;;;4994499;28;20030;-80
2022/07/31 03:53:45;;;;;;;4.68;2.40;;;17.70;93.30;;;;;;4990674;28;20061;-79
2022/07/31 03:56:11;;;;;;;2.83;2.13;;;17.60;93.80;;;;;;4988562;28;20053;-80
2022/07/31 03:58:37;;;;;;;4.03;2.30;;;17.60;94.40;;;;;;4993804;28;20056;-81
2022/07/31 04:01:03;;;;;;;9.20;2.45;;;17.60;94.70;;;;;;4992374;28;20026;-81
2022/07/31 04:03:31;;;;;;;3.00;2.70;;;17.60;95.20;;;;;;4988027;28;20030;-81
2022/07/31 04:05:57;;;;;;;4.32;2.28;;;17.60;95.60;;;;;;4991544;28;20038;-79
2022/07/31 04:08:23;;;;;;;3.55;2.00;;;17.50;95.30;;;;;;4993054;28;20019;-78
2022/07/31 04:10:49;;;;;;;4.07;2.40;;;17.50;95.20;;;;;;4997538;28;20038;-79
2022/07/31 04:13:14;;;;;;;2.83;2.00;;;17.50;95.20;;;;;;4993323;28;20137;-79
2022/07/31 04:15:40;;;;;;;3.38;1.98;;;17.50;95.20;;;;;;4992290;28;20034;-79
2022/07/31 04:18:06;;;;;;;2.30;1.88;;;17.50;95.00;;;;;;4990838;28;20116;-80
2022/07/31 04:20:34;;;;;;;2.55;2.00;;;17.50;94.90;;;;;;4992355;28;20026;-80
2022/07/31 04:23:00;;;;;;;3.63;2.00;;;17.50;94.70;;;;;;4992568;28;20057;-80
2022/07/31 04:25:25;;;;;;;4.97;2.00;;;17.50;94.60;;;;;;4989157;28;20030;-80
2022/07/31 04:27:51;;;;;;;5.70;2.00;;;17.50;94.60;;;;;;4990903;28;20030;-81
2022/07/31 04:30:20;;;;;;;3.75;1.90;;;17.50;94.70;;;;;;5002730;28;20122;-82
2022/07/31 04:32:45;;;;;;;3.60;1.83;;;17.50;94.70;;;;;;4989952;28;20550;-79
2022/07/31 04:35:12;;;;;;;2.97;1.80;;;17.50;94.70;;;;;;4997025;28;20069;-79
2022/07/31 04:37:38;;;;;;;2.33;1.58;;;17.50;94.80;;;;;;4995581;28;20479;-79
2022/07/31 04:40:04;;;;;;;4.60;1.95;;;17.60;94.90;;;;;;4992563;28;20129;-80
2022/07/31 04:42:29;;;;;;;3.40;2.10;;;17.60;94.90;;;;;;4993944;28;20076;-80
2022/07/31 04:44:55;;;;;;;3.08;2.05;;;17.70;95.00;;;;;;4997028;28;20018;-79
2022/07/31 04:47:20;;;;;;;3.03;2.05;;;17.70;95.20;;;;;;4992475;28;21099;-79
2022/07/31 04:49:49;;;;;;;2.55;1.88;;;17.80;95.10;;;;;;4993018;28;20041;-79
2022/07/31 04:52:15;;;;;;;3.85;1.80;;;17.80;94.90;;;;;;4996022;28;20027;-79
2022/07/31 04:54:40;;;;;;;4.70;2.00;;;17.90;94.80;;;;;;4994737;28;20038;-80
2022/07/31 04:57:06;;;;;;;2.72;1.88;;;18.00;94.70;;;;;;4989875;28;20176;-79
2022/07/31 04:59:32;;;;;;;6.88;1.67;;;18.00;94.50;;;;;;4994944;28;20030;-80
2022/07/31 05:01:57;;;;;;;2.83;1.50;;;18.10;94.40;;;;;;4994470;28;20058;-79
2022/07/31 05:04:27;;;;;;;1.55;1.23;;;18.20;94.60;;;;;;4997586;28;20480;-79
2022/07/31 05:06:53;;;;;;;2.90;1.42;;;18.30;94.40;;;;;;4995626;28;20033;-79
2022/07/31 05:09:24;;;;;;;4.28;1.80;;;18.40;94.10;;;;;;5000868;28;20383;-81
2022/07/31 05:11:50;;;;;;;4.15;1.73;;;18.50;93.90;;;;;;5000049;28;20109;-79
2022/07/31 05:14:17;;;;;;;2.58;2.00;;;18.60;93.70;;;;;;4995635;28;20022;-80
2022/07/31 05:16:43;;;;;;;3.03;1.70;;;18.60;93.70;;;;;;4997453;28;20092;-80
2022/07/31 05:19:10;;;;;;;3.08;1.83;;;18.70;93.50;;;;;;4994720;28;20570;-79
2022/07/31 05:21:35;;;;;;;3.80;1.60;;;18.70;93.40;;;;;;4995307;28;20176;-80
2022/07/31 05:24:01;;;;;;;3.67;1.73;;;18.80;93.30;;;;;;5001192;28;20042;-79
2022/07/31 05:26:29;;;;;;;2.92;1.92;;;18.80;93.20;;;;;;4998937;28;20057;-79
2022/07/31 05:28:56;;;;;;;3.72;1.80;;;18.90;93.00;;;;;;4995558;28;20936;-77
2022/07/31 05:31:22;;;;;;;6.47;1.80;;;19.00;92.90;;;;;;5001355;28;20144;-77
2022/07/31 05:33:49;;;;;;;2.92;1.50;;;19.10;92.70;;;;;;4990011;28;20054;-77
2022/07/31 05:36:19;;;;;;;2.17;1.60;;;19.30;92.40;;;;;;4994509;28;20117;-78
2022/07/31 05:38:45;;;;;;;2.45;1.48;;;19.40;92.20;;;;;;4991695;28;20065;-77
2022/07/31 05:41:11;;;;;;;2.00;1.70;;;19.40;92.10;;;;;;4989582;28;20030;-78
2022/07/31 05:43:37;;;;;;;3.90;1.58;;;19.50;92.00;;;;;;4987480;28;20540;-77
2022/07/31 05:46:04;;;;;;;3.78;2.17;;;19.50;92.00;;;;;;4990997;28;20475;-80
2022/07/31 05:48:30;;;;;;;4.13;1.40;;;19.60;92.00;;;;;;5003856;28;20028;-80
2022/07/31 05:50:58;;;;;;;4.25;1.27;;;19.80;91.80;;;;;;4992197;28;20027;-79
2022/07/31 05:53:24;;;;;;;2.63;1.70;;;20.00;91.60;;;;;;4993690;28;20038;-78
2022/07/31 05:55:50;;;;;;;2.13;1.23;;;20.10;91.40;;;;;;4995908;28;20018;-79
2022/07/31 05:58:17;;;;;;;3.05;1.73;;;20.10;91.20;;;;;;4986488;28;20193;-79
2022/07/31 06:00:46;;;;;;;1.88;1.58;;;20.20;91.20;;;;;;4982540;28;20376;-79
2022/07/31 06:03:12;;;;;;;3.70;2.03;;;20.30;91.20;;;;;;4994186;28;20030;-81
2022/07/31 06:05:39;;;;;;;2.78;1.80;;;20.40;91.00;;;;;;5000091;28;20046;-78
2022/07/31 06:08:05;;;;;;;4.07;2.08;;;20.40;90.70;;;;;;4988522;28;20026;-75
2022/07/31 06:10:31;;;;;;;3.75;1.50;;;20.50;90.80;;;;;;4987089;28;20053;-75
2022/07/31 06:12:57;;;;;;;4.20;1.80;;;20.60;90.70;;;;;;4988739;28;20479;-75
2022/07/31 06:15:23;;;;;;;2.92;2.03;;;20.60;90.60;;;;;;4981045;28;20042;-75
2022/07/31 06:17:48;;;;;;;6.07;1.67;;;20.60;90.70;;;;;;4983256;28;20045;-75
2022/07/31 06:20:14;;;;;;;7.57;2.55;;;20.70;90.80;;;;;;4980497;28;20104;-74
2022/07/31 06:22:42;;;;;;;3.22;1.73;;;20.60;90.90;;;;;;4987005;28;20121;-74
2022/07/31 06:25:10;;;;;;;2.85;1.70;;;20.70;90.90;;;;;;4982650;28;20031;-74
2022/07/31 06:27:36;;;;;;;3.75;1.75;;;20.70;90.90;;;;;;4986253;28;20041;-75
2022/07/31 06:30:04;;;;;;;2.47;1.80;;;20.70;90.80;;;;;;4989826;28;20038;-75
2022/07/31 06:32:31;;;;;;;4.50;2.20;;;20.80;90.80;;;;;;4991847;28;20022;-75
2022/07/31 06:34:56;;;;;;;3.70;2.25;;;20.80;90.80;;;;;;4990887;28;20026;-75
2022/07/31 06:37:22;;;;;;;5.47;1.90;;;20.90;91.10;;;;;;4989605;28;20442;-75
2022/07/31 06:39:48;;;;;;;3.50;2.05;;;20.90;90.80;;;;;;4989268;28;20026;-75
2022/07/31 06:42:18;;;;;;;2.67;1.80;;;21.00;90.90;;;;;;4986247;28;20610;-75
2022/07/31 06:44:43;;;;;;;3.75;2.00;;;21.10;90.90;;;;;;4990005;28;20534;-74
2022/07/31 06:47:09;;;;;;;9.10;2.00;;;21.10;91.00;;;;;;4988506;28;20027;-76
2022/07/31 06:49:35;;;;;;;5.00;2.08;;;21.10;90.60;;;;;;4988859;28;20076;-75
2022/07/31 06:52:01;;;;;;;3.22;2.00;;;21.20;90.60;;;;;;4988565;28;20022;-74
2022/07/31 06:54:26;;;;;;;4.75;1.83;;;21.20;90.60;;;;;;4986705;28;20765;-75
2022/07/31 06:56:52;;;;;;;3.55;2.00;;;21.20;90.40;;;;;;4991246;28;20023;-75
2022/07/31 06:59:18;;;;;;;3.50;1.85;;;21.20;90.40;;;;;;4989714;28;20026;-76
2022/07/31 07:01:43;;;;;;;6.80;1.83;;;21.20;90.20;;;;;;4976485;28;20057;-76
2022/07/31 07:04:09;;;;;;;4.13;2.67;;;21.30;90.10;;;;;;4984387;28;20434;-77
2022/07/31 07:06:34;;;;;;;5.03;2.05;;;21.30;90.00;;;;;;4982188;28;20030;-76
2022/07/31 07:09:00;;;;;;;6.18;2.08;;;21.40;89.70;;;;;;4978456;28;20110;-77
2022/07/31 07:11:25;;;;;;;5.15;2.38;;;21.40;89.80;;;;;;4984073;28;20023;-77
2022/07/31 07:13:51;;;;;;;4.78;2.00;;;21.50;89.20;;;;;;4985383;28;20034;-77
2022/07/31 07:16:17;;;;;;;4.72;1.80;;;21.50;88.50;;;;;;4979517;28;20039;-74
2022/07/31 07:18:42;;;;;;;2.72;1.60;;;21.60;88.10;;;;;;4985698;28;21652;-79
2022/07/31 07:21:08;;;;;;;2.83;2.05;;;21.70;87.80;;;;;;4992510;28;20034;-80
2022/07/31 07:23:34;;;;;;;5.63;1.40;;;21.80;87.60;;;;;;4992600;28;20212;-79
2022/07/31 07:25:59;;;;;;;2.72;1.70;;;21.80;86.40;;;;;;4995026;28;20450;-79
2022/07/31 07:28:25;;;;;;;4.68;2.47;;;21.90;86.70;;;;;;4988061;28;20026;-80
2022/07/31 07:30:51;;;;;;;3.22;1.67;;;21.90;86.40;;;;;;4988091;28;20442;-80
2022/07/31 07:33:16;;;;;;;3.40;1.85;;;21.90;86.20;;;;;;4992193;28;20030;-79
2022/07/31 07:35:42;;;;;;;2.42;1.63;;;21.90;86.00;;;;;;4985329;28;22103;-78
2022/07/31 07:38:08;;;;;;;4.40;1.92;;;22.00;86.10;;;;;;4989350;28;20113;-75
2022/07/31 07:40:34;;;;;;;3.28;1.75;;;22.00;86.10;;;;;;4989869;28;20156;-75
2022/07/31 07:43:00;;;;;;;2.90;1.73;;;22.00;86.30;;;;;;4989408;28;20500;-75
2022/07/31 07:45:26;;;;;;;3.35;1.60;;;22.10;86.30;;;;;;4990375;28;20032;-77
2022/07/31 07:47:51;;;;;;;4.20;1.95;;;22.20;86.50;;;;;;4989651;28;20093;-76
2022/07/31 07:50:17;;;;;;;3.45;1.67;;;22.30;86.70;;;;;;4990526;28;20041;-75
2022/07/31 07:52:43;;;;;;;4.20;2.10;;;22.40;86.30;;;;;;4990065;28;20034;-77
2022/07/31 07:55:11;;;;;;;2.28;1.30;;;22.50;86.30;;;;;;4986486;28;20030;-70
2022/07/31 07:57:37;;;;;;;4.90;1.88;;;22.60;85.50;;;;;;4978074;28;20022;-72
2022/07/31 08:00:07;;;;;;;2.50;1.80;;;22.70;85.50;;;;;;4983230;28;20026;-71
2022/07/31 08:02:33;;;;;;;2.97;1.80;;;22.90;84.40;;;;;;4983949;28;20376;-72
2022/07/31 08:04:59;;;;;;;2.17;1.40;;;23.10;83.10;;;;;;4983571;28;20041;-70
2022/07/31 08:07:29;;;;;;;3.63;1.83;;;23.20;82.20;;;;;;4980129;28;20023;-73
2022/07/31 08:09:56;;;;;;;3.60;1.58;;;23.40;81.90;;;;;;4991543;28;20080;-72
2022/07/31 08:12:22;;;;;;;5.10;1.50;;;23.60;81.20;;;;;;4987689;28;20030;-73
2022/07/31 08:14:48;;;;;;;4.75;1.50;;;23.80;79.60;;;;;;4991075;28;20475;-74
2022/07/31 08:17:14;;;;;;;6.32;1.60;;;23.90;79.00;;;;;;4990693;28;20513;-73
2022/07/31 08:19:40;;;;;;;3.08;1.40;;;24.10;78.10;;;;;;4991052;28;20069;-74
2022/07/31 08:22:06;;;;;;;5.03;1.20;;;24.10;75.90;;;;;;4991658;28;20475;-76
2022/07/31 08:24:32;;;;;;;2.40;1.20;;;24.20;74.20;;;;;;4990362;28;20076;-76
2022/07/31 08:29:44;;;;;;;1.83;1.40;;;24.30;74.70;;;;;;4991823;28;20518;-75
2022/07/31 08:32:10;;;;;;;3.83;1.70;;;24.50;75.70;;;;;;4992843;28;20029;-75
2022/07/31 08:34:35;;;;;;;1.60;1.50;;;24.60;75.80;;;;;;4989874;28;20026;-76
2022/07/31 08:37:02;;;;;;;1.65;1.27;;;24.60;74.80;;;;;;4985501;28;20733;-76
2022/07/31 08:39:28;;;;;;;4.30;1.55;;;24.70;74.40;;;;;;4988463;28;20073;-76
2022/07/31 08:41:54;;;;;;;1.80;1.30;;;24.70;74.20;;;;;;4993882;28;20472;-77
2022/07/31 08:44:20;;;;;;;3.92;1.58;;;24.70;74.40;;;;;;4991825;28;20026;-77
2022/07/31 08:46:46;;;;;;;1.55;1.25;;;24.70;73.40;;;;;;4992554;28;20030;-76
2022/07/31 08:49:15;;;;;;;1.58;1.40;;;24.70;73.00;;;;;;4993588;28;20415;-75
2022/07/31 08:51:42;;;;;;;1.95;1.30;;;24.70;73.00;;;;;;4993286;28;20018;-75
2022/07/31 08:54:10;;;;;;;2.55;2.03;;;24.80;73.00;;;;;;4993187;28;20037;-76
2022/07/31 08:56:37;;;;;;;1.95;1.48;;;24.80;71.20;;;;;;4993221;28;20502;-76
2022/07/31 08:59:03;;;;;;;2.90;1.55;;;24.90;71.50;;;;;;4991711;28;20103;-74
2022/07/31 09:01:31;;;;;;;1.58;1.20;;;24.90;71.40;;;;;;4989087;28;20460;-72
2022/07/31 09:03:58;;;;;;;2.58;1.40;;;25.00;71.30;;;;;;4986122;28;20038;-72
2022/07/31 09:06:24;;;;;;;3.67;1.52;;;25.00;70.60;;;;;;4982960;28;20113;-73
2022/07/31 09:08:49;;;;;;;2.97;1.67;;;25.10;70.50;;;;;;4999480;28;20125;-77
2022/07/31 09:11:15;;;;;;;3.92;2.05;;;25.10;70.60;;;;;;4988427;28;20023;-76
2022/07/31 09:13:58;;;;;;;3.75;1.58;;;25.10;71.10;;;;;;4986569;28;20023;-75
2022/07/31 09:16:24;;;;;;;4.05;1.80;;;25.10;71.80;;;;;;4982933;28;20121;-77
2022/07/31 09:18:57;;;;;;;5.22;2.20;;;25.10;71.70;;;;;;4981735;28;20722;-74
2022/07/31 09:21:23;;;;;;;3.55;1.30;;;25.20;71.60;;;;;;4986281;28;20373;-75
2022/07/31 09:23:48;;;;;;;3.90;1.70;;;25.30;70.30;;;;;;4985978;28;20034;-74
2022/07/31 09:26:14;;;;;;;3.47;1.60;;;25.30;70.40;;;;;;4987691;28;20049;-75
2022/07/31 09:28:49;;;;;;;1.40;1.30;;;25.30;70.60;;;;;;4982905;28;20027;-74
2022/07/31 09:31:15;;;;;;;4.20;2.10;;;25.30;70.80;;;;;;4981485;28;20037;-75
2022/07/31 09:33:45;;;;;;;5.43;2.00;;;25.40;71.10;;;;;;4980182;28;20030;-74
2022/07/31 09:36:12;;;;;;;2.90;1.95;;;25.40;70.80;;;;;;4989599;28;20041;-75
2022/07/31 09:38:43;;;;;;;3.47;1.98;;;25.50;70.40;;;;;;4993379;28;20030;-75
2022/07/31 09:41:14;;;;;;;2.65;1.42;;;25.60;69.90;;;;;;4993405;28;20037;-75
2022/07/31 09:43:40;;;;;;;5.10;1.85;;;25.60;68.60;;;;;;4993435;28;20045;-75
2022/07/31 09:46:07;;;;;;;2.20;1.33;;;25.80;68.60;;;;;;4993067;28;20498;-76
2022/07/31 09:48:34;;;;;;;3.15;1.35;;;25.80;67.00;;;;;;4987632;28;20034;-75
2022/07/31 09:51:05;;;;;;;2.35;1.65;;;25.90;66.60;;;;;;4995572;28;20022;-75
2022/07/31 09:53:44;;;;;;;5.38;1.40;;;25.90;66.20;;;;;;4996689;28;20030;-75
2022/07/31 09:56:11;;;;;;;1.67;1.15;;;26.00;66.20;;;;;;4997202;28;20034;-75
2022/07/31 09:58:39;;;;;;;4.32;1.77;;;26.10;66.50;;;;;;4996995;28;20023;-74
2022/07/31 10:01:06;;;;;;;3.42;1.52;;;26.20;66.40;;;;;;4996826;28;20034;-75
2022/07/31 10:03:34;;;;;;;3.33;1.55;;;26.20;66.10;;;;;;4996782;28;20018;-75
2022/07/31 10:06:00;;;;;;;2.92;1.48;;;26.30;65.30;;;;;;4995551;28;20027;-74
2022/07/31 10:08:27;;;;;;;3.60;1.42;;;26.30;64.50;;;;;;4996743;28;20025;-74
2022/07/31 10:10:53;;;;;;;3.88;1.00;;;26.40;64.10;;;;;;4996746;28;20495;-76
2022/07/31 10:13:19;;;;;;;3.58;1.58;;;26.40;63.90;;;;;;4994952;28;20057;-75
2022/07/31 10:15:48;;;;;;;5.53;1.52;;;26.50;63.90;;;;;;4994933;28;20030;-76
2022/07/31 10:18:17;;;;;;;1.98;1.25;;;26.50;63.90;;;;;;4995490;28;20356;-76
2022/07/31 10:20:51;;;;;;;2.42;1.40;;;26.50;64.20;;;;;;4997697;28;20046;-69
2022/07/31 10:23:24;;;;;;;3.25;1.55;;;26.50;64.70;;;;;;4994563;28;20080;-68
2022/07/31 10:25:54;;;;;;;4.65;1.58;;;26.60;65.40;;;;;;4990578;28;20031;-69
2022/07/31 10:28:21;;;;;;;3.40;1.60;;;26.70;65.00;;;;;;4996520;28;20465;-70
2022/07/31 10:30:47;;;;;;;2.65;1.58;;;26.80;65.20;;;;;;4994304;28;20086;-70
2022/07/31 10:33:13;;;;;;;5.00;1.45;;;26.90;65.00;;;;;;4989576;28;20053;-68
2022/07/31 10:35:56;;;;;;;3.55;1.40;;;26.90;64.30;;;;;;5003130;28;20069;-67
2022/07/31 10:38:29;;;;;;;4.75;1.50;;;27.00;64.00;;;;;;4991501;28;20029;-68
2022/07/31 10:41:02;;;;;;;2.13;1.50;;;26.90;63.20;;;;;;4995176;28;20054;-68
2022/07/31 10:43:41;;;;;;;1.70;1.40;;;27.00;63.40;;;;;;4995678;28;20598;-68
2022/07/31 10:46:07;;;;;;;3.03;1.50;;;27.00;63.50;;;;;;4982205;28;20315;-68
2022/07/31 10:48:32;;;;;;;3.25;1.65;;;27.20;64.20;;;;;;4977110;28;20054;-67
2022/07/31 10:51:08;;;;;;;4.95;1.52;;;27.20;63.90;;;;;;4974172;28;20053;-68
2022/07/31 10:53:34;;;;;;;2.30;1.30;;;27.30;64.30;;;;;;4986905;28;20109;-73
2022/07/31 10:56:02;;;;;;;3.42;1.60;;;27.40;63.30;;;;;;4992690;28;20026;-73
2022/07/31 10:58:29;;;;;;;5.07;1.75;;;27.40;62.40;;;;;;4993713;28;20490;-72
2022/07/31 11:01:08;;;;;;;2.75;1.42;;;27.40;62.00;;;;;;4994320;28;20030;-72
2022/07/31 11:03:39;;;;;;;2.22;1.63;;;27.50;62.00;;;;;;4992675;28;20030;-73
2022/07/31 11:06:05;;;;;;;3.03;1.35;;;27.50;62.10;;;;;;4994838;28;20121;-73
2022/07/31 11:08:42;;;;;;;3.92;1.90;;;27.50;62.60;;;;;;4994835;28;20460;-73
2022/07/31 11:11:08;;;;;;;3.13;1.60;;;27.50;62.50;;;;;;4994911;28;20471;-72
2022/07/31 11:13:50;;;;;;;3.75;1.30;;;27.60;63.00;;;;;;4997487;28;20124;-72
2022/07/31 11:16:16;;;;;;;2.20;1.35;;;27.70;62.40;;;;;;4996855;28;20036;-72
2022/07/31 11:18:44;;;;;;;3.10;1.55;;;27.80;62.10;;;;;;4989471;28;20109;-71
2022/07/31 11:21:11;;;;;;;3.63;1.48;;;27.80;61.80;;;;;;4993453;28;20022;-73
2022/07/31 11:23:36;;;;;;;3.90;1.50;;;27.90;61.70;;;;;;4985543;28;20350;-73
2022/07/31 11:26:06;;;;;;;2.97;1.33;;;28.00;61.60;;;;;;4993115;28;20077;-73
2022/07/31 11:28:34;;;;;;;3.20;1.33;;;28.10;61.60;;;;;;4982813;28;20073;-72
2022/07/31 11:31:05;;;;;;;1.92;1.42;;;28.10;61.20;;;;;;4988878;28;20499;-68
2022/07/31 11:33:45;;;;;;;3.38;1.65;;;28.10;61.40;;;;;;4981047;28;20062;-69
2022/07/31 11:36:25;;;;;;;1.77;1.60;;;28.10;61.40;;;;;;4983751;28;20034;-69
2022/07/31 11:38:55;;;;;;;3.38;1.65;;;28.10;61.00;;;;;;4970111;28;20088;-69
2022/07/31 11:41:25;;;;;;;4.90;1.70;;;28.00;60.20;;;;;;4975753;28;20026;-68
2022/07/31 11:43:53;;;;;;;2.05;1.35;;;28.00;60.80;;;;;;4984659;28;20034;-68
2022/07/31 11:46:31;;;;;;;1.75;1.38;;;28.00;61.20;;;;;;4986375;28;20034;-68
2022/07/31 11:48:57;;;;;;;2.35;1.70;;;27.90;62.10;;;;;;4987752;28;20530;-67
2022/07/31 11:51:24;;;;;;;3.67;1.63;;;28.00;63.40;;;;;;4978560;28;20026;-68
2022/07/31 11:53:51;;;;;;;3.60;1.25;;;28.00;62.40;;;;;;4971521;28;20035;-68
2022/07/31 11:56:18;;;;;;;2.47;1.70;;;27.90;61.70;;;;;;4977218;28;20030;-68
2022/07/31 11:58:52;;;;;;;1.83;1.33;;;27.90;61.30;;;;;;4986858;28;20054;-68
2022/07/31 12:01:22;;;;;;;5.10;1.50;;;27.90;61.00;;;;;;4985149;28;20035;-69
2022/07/31 12:03:49;;;;;;;3.17;1.77;;;27.90;62.40;;;;;;4990094;28;20031;-70
2022/07/31 12:06:20;;;;;;;1.73;1.60;;;27.90;62.40;;;;;;4988213;28;20038;-68
2022/07/31 12:08:47;;;;;;;2.97;1.88;;;27.90;61.50;;;;;;4985120;28;20483;-68
2022/07/31 12:11:13;;;;;;;2.53;1.35;;;27.90;61.00;;;;;;4988620;28;20109;-69
2022/07/31 12:13:39;;;;;;;2.58;1.60;;;27.90;61.30;;;;;;4981227;28;20027;-68
2022/07/31 12:16:09;;;;;;;2.45;1.60;;;27.90;61.30;;;;;;4987335;28;20061;-68
2022/07/31 12:18:48;;;;;;;3.80;1.40;;;28.00;60.80;;;;;;4986772;28;20034;-68
2022/07/31 12:21:16;;;;;;;3.05;1.60;;;28.00;62.10;;;;;;4983327;28;20038;-68
2022/07/31 12:23:42;;;;;;;3.55;2.05;;;28.00;61.80;;;;;;4986514;28;20026;-68
2022/07/31 12:26:12;;;;;;;1.65;1.45;;;28.10;61.30;;;;;;4976890;28;20487;-68
2022/07/31 12:28:39;;;;;;;2.15;1.90;;;28.20;60.40;;;;;;4984726;28;20073;-68
2022/07/31 12:31:04;;;;;;;3.15;1.50;;;28.20;61.40;;;;;;4984657;28;20041;-68
2022/07/31 12:33:40;;;;;;;2.03;1.42;;;28.20;59.90;;;;;;4986745;28;20026;-67
2022/07/31 12:36:16;;;;;;;2.17;1.52;;;28.20;60.10;;;;;;4982514;28;20026;-68
2022/07/31 12:38:43;;;;;;;13.43;4.82;;;28.30;59.80;;;;;;4986986;28;20495;-67
2022/07/31 12:41:09;;;;;;;4.45;1.40;;;28.40;61.50;;;;;;4985243;28;20534;-68
2022/07/31 12:43:35;;;;;;;4.35;1.50;;;28.50;62.10;;;;;;4982731;28;20030;-69
2022/07/31 12:46:04;;;;;;;5.18;2.33;;;28.50;59.90;;;;;;4984878;28;20057;-68
2022/07/31 12:48:31;;;;;;;6.22;1.92;;;28.50;60.60;;;;;;4982745;28;20480;-67
2022/07/31 12:50:57;;;;;;;2.83;1.77;;;28.50;60.70;;;;;;4984028;28;20361;-68
2022/07/31 12:53:23;;;;;;;4.43;1.55;;;28.60;59.50;;;;;;4981435;28;20031;-68
2022/07/31 12:55:48;;;;;;;2.83;1.60;;;28.60;59.30;;;;;;4981050;28;20038;-68